Time;durP1;ratioP1;P1;durP2;ratioP2;P2;SDS_P1;SDS_P2;PMS_P1;PMS_P2;Temp;Humidity;BMP_temperature;BMP_pressure;BME280_temperature;BME280_humidity;BME280_pressure;Samples;Min_cycle;Max_cycle;Signal;HPM_P1;HPM_P2
2021/11/20 05:02:38;;;;;;;10.07;7.88;;;11.50;99.90;;;;;;5001159;23;20262;-72
2021/11/20 05:05:06;;;;;;;13.90;7.95;;;11.50;99.90;;;;;;5007421;28;20211;-70
2021/11/20 05:07:32;;;;;;;16.77;8.07;;;11.50;99.90;;;;;;5000436;28;20230;-70
2021/11/20 05:10:00;;;;;;;12.57;7.15;;;11.50;99.90;;;;;;5007842;28;20207;-71
2021/11/20 05:12:26;;;;;;;12.13;7.28;;;11.50;99.90;;;;;;4992352;28;20220;-71
2021/11/20 05:14:53;;;;;;;12.57;7.50;;;11.40;99.90;;;;;;4992895;28;20208;-72
2021/11/20 05:17:20;;;;;;;11.70;7.95;;;11.40;99.90;;;;;;5004466;23;20228;-73
2021/11/20 05:19:48;;;;;;;14.15;7.72;;;11.40;99.90;;;;;;4992283;28;20523;-73
2021/11/20 05:22:15;;;;;;;10.57;7.93;;;11.40;99.90;;;;;;4992464;28;20211;-74
2021/11/20 05:24:42;;;;;;;15.65;9.18;;;11.30;99.90;;;;;;4988812;28;20204;-74
2021/11/20 05:27:09;;;;;;;16.17;9.60;;;11.30;99.90;;;;;;4987105;28;20667;-74
2021/11/20 05:29:41;;;;;;;18.38;11.57;;;11.30;99.90;;;;;;4984221;28;20208;-74
2021/11/20 05:32:09;;;;;;;19.20;12.63;;;11.30;99.90;;;;;;4986723;28;20216;-72
2021/11/20 05:34:37;;;;;;;23.60;14.77;;;11.30;99.90;;;;;;4991110;28;20262;-72
2021/11/20 05:37:05;;;;;;;23.98;14.18;;;11.30;99.90;;;;;;4988226;28;20220;-74
2021/11/20 05:39:32;;;;;;;21.88;14.15;;;11.40;99.90;;;;;;4991626;28;20208;-75
2021/11/20 05:41:59;;;;;;;29.50;16.42;;;11.40;99.90;;;;;;4989798;28;20215;-74
2021/11/20 05:44:26;;;;;;;26.98;16.98;;;11.40;99.90;;;;;;4990519;28;20223;-73
2021/11/20 05:46:58;;;;;;;30.13;16.20;;;11.40;99.90;;;;;;4982449;28;20237;-74
2021/11/20 05:49:26;;;;;;;26.70;15.73;;;11.30;99.90;;;;;;4991499;28;20204;-75
2021/11/20 05:51:53;;;;;;;21.73;14.43;;;11.30;99.90;;;;;;4982961;28;20296;-74
2021/11/20 05:54:21;;;;;;;30.25;16.90;;;11.40;99.90;;;;;;4990336;28;20204;-74
2021/11/20 05:56:48;;;;;;;31.05;15.93;;;11.40;99.90;;;;;;4985283;28;20212;-73
2021/11/20 05:59:15;;;;;;;27.77;16.67;;;11.40;99.90;;;;;;4985643;28;20212;-74
2021/11/20 06:01:42;;;;;;;28.65;16.45;;;11.40;99.90;;;;;;4982214;28;20248;-74
2021/11/20 06:04:09;;;;;;;28.60;16.35;;;11.40;99.90;;;;;;4983209;28;20274;-74
2021/11/20 06:06:36;;;;;;;25.70;17.00;;;11.40;99.90;;;;;;4978057;28;20224;-74
2021/11/20 06:09:04;;;;;;;23.70;16.50;;;11.40;99.90;;;;;;4991836;28;20208;-74
2021/11/20 06:11:32;;;;;;;30.42;14.88;;;11.40;99.90;;;;;;4986652;28;20212;-74
2021/11/20 06:13:59;;;;;;;29.27;16.15;;;11.40;99.90;;;;;;4980148;28;20777;-73
2021/11/20 06:16:26;;;;;;;24.27;15.82;;;11.40;99.90;;;;;;4981677;28;20249;-75
2021/11/20 06:18:52;;;;;;;23.58;16.08;;;11.40;99.90;;;;;;4988349;28;20204;-73
2021/11/20 06:21:19;;;;;;;27.25;14.73;;;11.40;99.90;;;;;;4989396;28;20215;-73
2021/11/20 06:23:46;;;;;;;24.08;14.80;;;11.40;99.90;;;;;;4989371;28;20259;-73
2021/11/20 06:26:14;;;;;;;24.70;14.38;;;11.40;99.90;;;;;;4989717;28;20602;-73
2021/11/20 06:28:42;;;;;;;25.08;15.27;;;11.50;99.90;;;;;;4981286;28;20232;-74
2021/11/20 06:31:08;;;;;;;22.10;15.70;;;11.40;99.90;;;;;;4987855;28;20211;-72
2021/11/20 06:33:36;;;;;;;18.42;13.52;;;11.40;99.90;;;;;;4982929;28;20216;-75
2021/11/20 06:36:03;;;;;;;26.73;15.07;;;11.50;99.90;;;;;;4991093;28;20286;-71
2021/11/20 06:38:34;;;;;;;23.58;13.80;;;11.50;99.90;;;;;;4992217;28;20232;-74
2021/11/20 06:41:03;;;;;;;23.33;13.57;;;11.50;99.90;;;;;;4991549;28;20211;-73
2021/11/20 06:43:30;;;;;;;21.60;13.15;;;11.50;99.90;;;;;;4985258;28;20209;-73
2021/11/20 06:46:02;;;;;;;27.90;14.98;;;11.50;99.90;;;;;;4991236;28;20215;-72
2021/11/20 06:48:30;;;;;;;23.00;14.45;;;11.50;99.90;;;;;;4988766;28;20227;-73
2021/11/20 06:50:57;;;;;;;20.08;13.77;;;11.50;99.90;;;;;;4990660;28;20291;-74
2021/11/20 06:53:26;;;;;;;22.73;13.52;;;11.50;99.90;;;;;;4982796;28;20235;-73
2021/11/20 06:55:53;;;;;;;21.33;13.82;;;11.50;99.90;;;;;;4987941;28;20206;-73
2021/11/20 06:58:32;;;;;;;23.48;13.45;;;11.50;99.90;;;;;;4982769;28;20641;-72
2021/11/20 07:01:04;;;;;;;20.65;12.55;;;11.50;99.90;;;;;;4979304;28;20678;-72
2021/11/20 07:03:34;;;;;;;22.10;11.25;;;11.50;99.90;;;;;;4987335;28;20220;-73
2021/11/20 07:06:04;;;;;;;14.80;11.50;;;11.50;99.90;;;;;;4985400;28;20665;-73
2021/11/20 07:08:31;;;;;;;16.25;11.60;;;11.50;99.90;;;;;;4989499;28;20323;-74
2021/11/20 07:11:00;;;;;;;19.17;12.35;;;11.50;99.90;;;;;;4983589;28;20208;-73
2021/11/20 07:13:28;;;;;;;17.77;12.07;;;11.50;99.90;;;;;;4988103;28;20208;-72
2021/11/20 07:15:55;;;;;;;20.67;11.32;;;11.50;99.90;;;;;;4985526;28;20254;-73
2021/11/20 07:18:24;;;;;;;19.13;13.13;;;11.50;99.90;;;;;;4986694;28;20227;-72
2021/11/20 07:20:53;;;;;;;16.40;11.00;;;11.50;99.90;;;;;;4981991;28;20646;-73
2021/11/20 07:23:19;;;;;;;17.90;11.80;;;11.50;99.90;;;;;;4983261;28;20285;-72
2021/11/20 07:25:47;;;;;;;14.85;11.02;;;11.50;99.90;;;;;;4990050;28;20416;-72
2021/11/20 07:28:14;;;;;;;14.93;10.60;;;11.50;99.90;;;;;;4986861;28;20364;-72
2021/11/20 07:30:42;;;;;;;15.48;11.38;;;11.60;99.90;;;;;;4975804;28;20213;-73
2021/11/20 07:33:10;;;;;;;14.20;11.13;;;11.60;99.90;;;;;;4990840;28;20222;-74
2021/11/20 07:35:40;;;;;;;17.55;11.70;;;11.50;99.90;;;;;;4993872;28;20740;-73
2021/11/20 07:38:09;;;;;;;15.00;11.70;;;11.50;99.90;;;;;;4982754;28;20220;-72
2021/11/20 07:40:38;;;;;;;13.80;9.85;;;11.50;99.90;;;;;;4983738;28;20208;-72
2021/11/20 07:43:05;;;;;;;13.38;9.63;;;11.50;99.90;;;;;;4992130;28;20291;-74
2021/11/20 07:45:32;;;;;;;12.63;9.95;;;11.50;99.90;;;;;;4993851;28;20208;-72
2021/11/20 07:48:04;;;;;;;14.50;9.82;;;11.50;99.90;;;;;;4992544;28;20237;-72
2021/11/20 07:50:31;;;;;;;17.40;10.43;;;11.50;99.90;;;;;;4990527;28;20318;-72
2021/11/20 07:52:59;;;;;;;15.98;11.68;;;11.50;99.90;;;;;;4988473;28;20307;-72
2021/11/20 07:55:25;;;;;;;17.23;13.75;;;11.50;99.90;;;;;;4985481;28;20212;-72
2021/11/20 07:57:52;;;;;;;19.75;13.75;;;11.50;99.90;;;;;;4993570;28;20220;-72
2021/11/20 08:00:21;;;;;;;19.63;13.40;;;11.50;99.90;;;;;;4980883;28;20216;-74
2021/11/20 08:02:48;;;;;;;15.18;13.23;;;11.50;99.90;;;;;;4982715;28;20212;-72
2021/11/20 08:05:15;;;;;;;17.77;13.27;;;11.50;99.90;;;;;;4989751;28;20202;-73
2021/11/20 08:07:42;;;;;;;17.33;12.23;;;11.60;99.90;;;;;;4981551;28;20220;-72
2021/11/20 08:10:14;;;;;;;17.58;12.65;;;11.60;99.90;;;;;;4994533;28;20246;-73
2021/11/20 08:12:41;;;;;;;17.40;12.40;;;11.60;99.90;;;;;;4982253;28;20294;-73
2021/11/20 08:15:09;;;;;;;20.10;13.20;;;11.60;99.90;;;;;;4983822;28;20565;-73
2021/11/20 08:17:35;;;;;;;18.25;13.48;;;11.60;99.90;;;;;;4988777;28;20657;-72
2021/11/20 08:20:04;;;;;;;22.40;12.68;;;11.70;99.90;;;;;;4982821;28;20208;-74
2021/11/20 08:22:30;;;;;;;19.80;13.35;;;11.80;99.90;;;;;;4978482;28;20556;-73
2021/11/20 08:24:57;;;;;;;19.52;13.25;;;11.80;99.90;;;;;;4975167;28;20212;-73
2021/11/20 08:27:25;;;;;;;19.08;12.50;;;11.80;99.90;;;;;;4974945;28;20225;-73
2021/11/20 08:29:52;;;;;;;18.98;13.88;;;11.80;99.90;;;;;;4975440;28;20212;-73
2021/11/20 08:32:19;;;;;;;21.88;14.23;;;11.80;99.90;;;;;;4989422;28;20203;-73
2021/11/20 08:34:47;;;;;;;18.75;13.57;;;11.80;99.90;;;;;;4994601;28;20680;-73
2021/11/20 08:37:15;;;;;;;18.42;14.10;;;11.80;99.90;;;;;;4993531;28;20224;-73
2021/11/20 08:39:41;;;;;;;18.75;14.40;;;11.80;99.90;;;;;;4994305;28;20208;-73
2021/11/20 08:42:09;;;;;;;15.98;13.52;;;11.80;99.90;;;;;;4986962;28;20207;-73
2021/11/20 08:44:37;;;;;;;19.25;13.18;;;11.90;99.90;;;;;;4992445;28;20204;-73
2021/11/20 08:47:04;;;;;;;20.88;16.15;;;11.90;99.90;;;;;;4996065;28;20285;-73
2021/11/20 08:49:31;;;;;;;17.30;13.20;;;11.90;99.90;;;;;;4979741;28;20292;-73
2021/11/20 08:51:58;;;;;;;22.85;13.25;;;11.90;99.90;;;;;;4975693;28;20463;-73
2021/11/20 08:54:25;;;;;;;18.67;12.65;;;11.90;99.90;;;;;;4979898;28;20208;-75
2021/11/20 08:56:54;;;;;;;25.90;15.93;;;12.00;99.90;;;;;;4993755;28;20672;-74
2021/11/20 08:59:23;;;;;;;22.77;16.03;;;12.00;99.90;;;;;;5001745;28;20199;-73
2021/11/20 09:01:54;;;;;;;19.75;15.48;;;12.00;99.90;;;;;;4993638;28;20469;-74
2021/11/20 09:04:25;;;;;;;15.30;12.43;;;12.00;99.90;;;;;;4991223;28;20201;-74
2021/11/20 09:07:01;;;;;;;17.00;13.15;;;12.00;99.90;;;;;;4992520;28;20483;-74
2021/11/20 09:09:33;;;;;;;25.33;17.47;;;12.00;99.90;;;;;;4992300;28;20200;-72
2021/11/20 09:12:03;;;;;;;14.52;12.35;;;12.00;99.90;;;;;;4978546;28;20464;-74
2021/11/20 09:14:35;;;;;;;14.68;11.70;;;12.10;99.90;;;;;;4978816;28;20204;-73
2021/11/20 09:17:04;;;;;;;18.37;14.40;;;12.10;99.90;;;;;;4991750;28;20239;-74
2021/11/20 09:19:33;;;;;;;17.25;14.45;;;12.10;99.90;;;;;;4993348;28;20467;-74
2021/11/20 09:22:00;;;;;;;21.80;15.20;;;12.10;99.90;;;;;;4982087;28;20552;-76
2021/11/20 09:24:29;;;;;;;16.13;11.95;;;12.10;99.90;;;;;;4976176;28;20209;-73
2021/11/20 09:26:57;;;;;;;15.43;12.30;;;12.10;99.90;;;;;;4991965;28;20220;-74
2021/11/20 09:29:27;;;;;;;15.50;13.20;;;12.10;99.90;;;;;;4984394;28;20460;-74
2021/11/20 09:31:53;;;;;;;23.37;18.30;;;12.10;99.90;;;;;;4985488;28;20288;-75
2021/11/20 09:34:23;;;;;;;15.50;13.17;;;12.20;99.90;;;;;;4989087;28;20469;-74
2021/11/20 09:36:52;;;;;;;19.83;14.98;;;12.20;99.90;;;;;;4992045;28;20490;-73
2021/11/20 09:39:21;;;;;;;13.63;11.90;;;12.20;99.90;;;;;;4985754;28;20257;-73
2021/11/20 09:42:09;;;;;;;16.53;14.20;;;12.30;99.90;;;;;;4978269;28;20223;-73
2021/11/20 09:44:41;;;;;;;15.80;13.18;;;12.30;99.90;;;;;;4987384;28;20550;-74
2021/11/20 09:47:14;;;;;;;17.03;13.20;;;12.30;99.90;;;;;;4979077;28;20219;-72
2021/11/20 09:49:46;;;;;;;15.73;11.97;;;12.30;99.90;;;;;;4986415;28;20459;-72
2021/11/20 09:52:14;;;;;;;19.77;14.03;;;12.40;99.90;;;;;;4984954;28;20451;-73
2021/11/20 09:54:43;;;;;;;15.90;12.60;;;12.40;99.90;;;;;;4990598;28;20470;-73
2021/11/20 09:57:21;;;;;;;15.60;13.97;;;12.40;99.90;;;;;;4990290;28;20479;-72
2021/11/20 09:59:50;;;;;;;20.10;16.30;;;12.40;99.90;;;;;;4987448;28;20459;-72
2021/11/20 10:02:20;;;;;;;15.90;12.70;;;12.40;99.90;;;;;;4983565;28;20463;-73
2021/11/20 10:04:55;;;;;;;13.17;10.50;;;12.40;99.90;;;;;;4974636;28;20463;-74
2021/11/20 10:07:29;;;;;;;24.77;15.40;;;12.50;99.90;;;;;;4971078;28;20478;-73
2021/11/20 10:10:01;;;;;;;15.63;11.73;;;12.40;99.90;;;;;;4991423;28;20476;-73
2021/11/20 10:12:35;;;;;;;20.33;12.53;;;12.50;99.90;;;;;;4991854;28;20498;-72
2021/11/20 10:15:11;;;;;;;21.23;14.87;;;12.50;99.90;;;;;;4979481;28;20460;-72
2021/11/20 10:17:42;;;;;;;16.73;14.90;;;12.50;99.90;;;;;;4986164;28;20498;-73
2021/11/20 10:20:42;;;;;;;11.20;10.10;;;12.50;99.90;;;;;;4987046;28;20483;-72
2021/11/20 10:23:25;;;;;;;11.03;10.03;;;12.50;99.90;;;;;;4985952;28;20554;-73
2021/11/20 10:26:14;;;;;;;10.33;9.40;;;12.60;99.90;;;;;;4984843;28;20454;-73
2021/11/20 10:28:59;;;;;;;10.60;9.60;;;12.60;99.90;;;;;;4976014;28;20491;-74
2021/11/20 10:31:30;;;;;;;9.27;8.57;;;12.60;99.90;;;;;;4972875;28;20464;-72
2021/11/20 10:34:01;;;;;;;8.87;8.17;;;12.60;99.90;;;;;;4981040;28;20472;-73
2021/11/20 10:36:33;;;;;;;8.67;8.00;;;12.70;99.90;;;;;;4980964;28;20467;-74
2021/11/20 10:39:05;;;;;;;9.27;8.43;;;12.70;99.90;;;;;;4989829;28;20458;-74
2021/11/20 10:41:37;;;;;;;8.37;7.67;;;12.70;99.90;;;;;;4990562;28;20466;-73
2021/11/20 10:44:19;;;;;;;8.70;7.80;;;12.70;99.90;;;;;;4991436;28;20459;-75
2021/11/20 10:46:56;;;;;;;7.30;6.60;;;12.70;99.90;;;;;;4982856;28;20491;-74
2021/11/20 10:49:48;;;;;;;8.00;7.17;;;12.80;99.90;;;;;;4984555;28;20993;-73
2021/11/20 10:52:47;;;;;;;8.47;7.30;;;12.70;99.90;;;;;;4991833;28;20467;-72
2021/11/20 10:55:23;;;;;;;7.77;6.93;;;12.70;99.90;;;;;;4980699;28;20486;-73
2021/11/20 10:58:16;;;;;;;8.13;7.20;;;12.80;99.90;;;;;;4987520;28;20487;-73
2021/11/20 11:01:25;;;;;;;6.60;6.10;;;12.80;99.90;;;;;;4984802;28;20912;-73
2021/11/20 11:04:00;;;;;;;8.43;7.73;;;12.70;99.90;;;;;;4965177;28;20566;-73
2021/11/20 11:06:45;;;;;;;7.00;6.50;;;12.70;99.90;;;;;;4988704;28;20458;-73
2021/11/20 11:09:32;;;;;;;7.50;6.80;;;12.70;99.90;;;;;;4990950;28;21005;-73
2021/11/20 11:12:03;;;;;;;6.67;6.20;;;12.60;99.90;;;;;;4990100;28;20466;-75
2021/11/20 11:14:53;;;;;;;6.53;5.80;;;12.60;99.90;;;;;;4987381;28;20497;-75
2021/11/20 11:17:30;;;;;;;8.03;5.93;;;12.60;99.90;;;;;;4977366;28;20495;-75
2021/11/20 11:20:03;;;;;;;6.57;6.07;;;12.60;99.90;;;;;;4980007;28;20455;-75
2021/11/20 11:22:33;;;;;;;6.37;5.73;;;12.60;99.90;;;;;;4984148;28;20479;-74
2021/11/20 11:25:11;;;;;;;7.33;6.27;;;12.60;99.90;;;;;;4982606;28;20806;-73
2021/11/20 11:28:11;;;;;;;6.33;5.77;;;12.50;99.90;;;;;;4991003;28;20552;-73
2021/11/20 11:30:44;;;;;;;5.53;5.23;;;12.50;99.90;;;;;;4985685;28;20474;-73
2021/11/20 11:33:11;;;;;;;7.30;6.57;;;12.50;99.90;;;;;;4972526;28;20491;-74
2021/11/20 11:35:43;;;;;;;6.47;5.87;;;12.50;99.90;;;;;;4986796;28;20494;-73
2021/11/20 11:38:48;;;;;;;10.20;9.07;;;12.50;99.90;;;;;;4991280;28;20566;-74
2021/11/20 11:41:24;;;;;;;10.20;8.00;;;12.50;99.90;;;;;;4987867;28;20478;-75
2021/11/20 11:44:02;;;;;;;18.73;9.83;;;12.50;99.90;;;;;;4988935;28;20454;-73
2021/11/20 11:46:44;;;;;;;16.20;12.40;;;12.50;99.90;;;;;;4971764;28;20448;-73
2021/11/20 11:49:43;;;;;;;14.23;9.73;;;12.50;99.90;;;;;;4971160;28;20988;-74
2021/11/20 11:52:41;;;;;;;11.77;8.80;;;12.40;99.90;;;;;;4971763;28;20503;-73
2021/11/20 11:55:36;;;;;;;12.10;8.45;;;12.40;99.90;;;;;;4974108;28;20810;-73
2021/11/20 11:58:15;;;;;;;12.10;9.33;;;12.50;99.90;;;;;;4984366;28;20319;-77
2021/11/20 12:00:56;;;;;;;16.53;12.90;;;12.40;99.90;;;;;;4989044;28;20478;-74
2021/11/20 12:03:32;;;;;;;13.13;11.10;;;12.40;99.90;;;;;;4971981;28;20471;-74
2021/11/20 12:06:19;;;;;;;13.37;10.07;;;12.40;99.90;;;;;;4974733;28;20473;-73
2021/11/20 12:08:50;;;;;;;16.50;12.10;;;12.40;99.90;;;;;;4976299;28;20566;-73
2021/11/20 12:11:33;;;;;;;12.93;11.60;;;12.40;99.90;;;;;;4991457;28;20553;-73
2021/11/20 12:14:18;;;;;;;8.93;8.03;;;12.30;99.90;;;;;;4991346;28;20458;-74
2021/11/20 12:16:53;;;;;;;16.07;12.23;;;12.30;99.90;;;;;;4990600;28;20486;-73
2021/11/20 12:19:37;;;;;;;17.97;13.63;;;12.30;99.90;;;;;;5007233;23;20476;-71
2021/11/20 12:22:17;;;;;;;16.70;11.97;;;12.30;99.90;;;;;;4993775;28;20872;-70
2021/11/20 12:24:47;;;;;;;20.33;14.63;;;12.30;99.90;;;;;;4987190;28;20509;-69
2021/11/20 12:27:31;;;;;;;15.43;11.73;;;12.30;99.90;;;;;;4994283;28;20463;-69
2021/11/20 12:30:36;;;;;;;14.90;11.53;;;12.30;99.90;;;;;;4987455;28;20483;-69
2021/11/20 12:33:18;;;;;;;12.90;11.43;;;12.20;99.90;;;;;;4974603;28;20463;-69
2021/11/20 12:35:59;;;;;;;15.40;12.47;;;12.20;99.90;;;;;;4974291;28;20949;-71
2021/11/20 12:38:38;;;;;;;13.20;11.73;;;12.20;99.90;;;;;;4974342;28;21056;-73
2021/11/20 12:41:17;;;;;;;13.17;11.90;;;12.20;99.90;;;;;;4974227;28;20479;-70
2021/11/20 12:44:10;;;;;;;14.53;12.70;;;12.10;99.90;;;;;;4974217;28;20939;-71
2021/11/20 12:46:52;;;;;;;13.40;12.10;;;12.10;99.90;;;;;;4974202;28;20466;-71
2021/11/20 12:49:35;;;;;;;20.53;13.63;;;12.10;99.90;;;;;;4974654;28;20514;-70
2021/11/20 12:52:24;;;;;;;13.93;11.80;;;12.10;99.90;;;;;;4993255;28;20447;-68
2021/11/20 12:54:56;;;;;;;15.50;13.00;;;12.00;99.90;;;;;;4993453;28;20196;-69
2021/11/20 12:57:28;;;;;;;16.33;12.13;;;12.00;99.90;;;;;;4993227;28;20235;-71
2021/11/20 13:00:02;;;;;;;14.45;12.52;;;12.00;99.90;;;;;;4987771;28;20247;-73
2021/11/20 13:02:38;;;;;;;15.95;12.70;;;12.00;99.90;;;;;;4973674;28;20531;-70
2021/11/20 13:05:16;;;;;;;17.15;14.55;;;11.90;99.90;;;;;;4973996;28;20208;-70
2021/11/20 13:07:49;;;;;;;16.70;13.30;;;12.00;99.90;;;;;;4973105;28;20208;-70
2021/11/20 13:10:25;;;;;;;19.48;14.57;;;12.00;99.90;;;;;;4988588;28;20246;-71
2021/11/20 13:12:57;;;;;;;18.20;14.93;;;11.90;99.90;;;;;;4985273;28;20208;-70
2021/11/20 13:15:35;;;;;;;16.70;15.00;;;12.00;99.90;;;;;;4984579;28;20575;-69
2021/11/20 13:18:17;;;;;;;26.25;17.35;;;11.90;99.90;;;;;;4987589;28;20491;-70
2021/11/20 13:20:55;;;;;;;16.98;13.48;;;11.90;99.90;;;;;;4988608;28;20239;-70
2021/11/20 13:23:24;;;;;;;15.95;13.38;;;11.90;99.90;;;;;;4988245;28;20661;-68
2021/11/20 13:26:36;;;;;;;16.70;13.38;;;11.90;99.90;;;;;;4985120;28;20227;-67
2021/11/20 13:29:07;;;;;;;18.42;14.25;;;11.80;99.90;;;;;;4963526;28;20238;-68
2021/11/20 13:31:38;;;;;;;15.65;12.73;;;11.80;99.90;;;;;;4985319;28;20904;-68
2021/11/20 13:34:08;;;;;;;16.73;13.77;;;11.80;99.90;;;;;;4981073;28;20681;-68
2021/11/20 13:36:35;;;;;;;17.35;14.18;;;11.80;99.90;;;;;;4988510;28;20611;-67
2021/11/20 13:39:05;;;;;;;15.32;13.38;;;11.80;99.90;;;;;;4989005;28;20211;-67
2021/11/20 13:41:32;;;;;;;19.08;13.90;;;11.80;99.90;;;;;;4987217;28;20231;-67
2021/11/20 13:43:59;;;;;;;22.65;14.57;;;11.80;99.90;;;;;;4986346;28;20223;-67
2021/11/20 13:46:27;;;;;;;17.15;12.70;;;11.80;99.90;;;;;;4980046;28;20228;-67
2021/11/20 13:48:55;;;;;;;20.50;15.43;;;11.70;99.90;;;;;;4982299;28;20231;-67
2021/11/20 13:51:25;;;;;;;18.17;13.95;;;11.80;99.90;;;;;;4977975;28;20211;-67
2021/11/20 13:53:54;;;;;;;15.65;13.20;;;11.70;99.90;;;;;;4991236;28;20203;-67
2021/11/20 13:56:21;;;;;;;18.40;13.90;;;11.70;99.90;;;;;;4981398;28;20208;-67
2021/11/20 13:58:56;;;;;;;13.82;12.40;;;11.70;99.90;;;;;;4975545;28;20208;-67
2021/11/20 14:01:23;;;;;;;15.20;13.35;;;11.70;99.90;;;;;;4988359;28;20238;-67
2021/11/20 14:03:56;;;;;;;15.38;12.10;;;11.60;99.90;;;;;;4982468;28;20205;-67
2021/11/20 14:06:24;;;;;;;15.75;12.38;;;11.60;99.90;;;;;;4984212;28;20208;-71
2021/11/20 14:08:51;;;;;;;14.88;12.63;;;11.60;99.90;;;;;;4983086;28;20229;-72
2021/11/20 14:11:21;;;;;;;21.17;14.95;;;11.60;99.90;;;;;;4985482;28;20231;-71
2021/11/20 14:13:53;;;;;;;21.73;17.42;;;11.50;99.90;;;;;;4981606;28;20234;-70
2021/11/20 14:16:32;;;;;;;16.17;13.35;;;11.50;99.90;;;;;;4985720;28;20598;-70
2021/11/20 14:19:00;;;;;;;17.92;16.02;;;11.50;99.90;;;;;;4980405;28;20608;-72
2021/11/20 14:21:29;;;;;;;19.30;15.48;;;11.50;99.90;;;;;;4980776;28;20220;-73
2021/11/20 14:23:59;;;;;;;16.40;12.98;;;11.40;99.90;;;;;;4989514;28;20208;-69
2021/11/20 14:26:26;;;;;;;18.95;14.20;;;11.40;99.90;;;;;;4981928;28;20200;-70
2021/11/20 14:28:52;;;;;;;20.10;14.23;;;11.40;99.90;;;;;;4986517;28;20228;-70
2021/11/20 14:31:22;;;;;;;20.17;15.35;;;11.40;99.90;;;;;;4974679;28;20231;-71
2021/11/20 14:33:51;;;;;;;18.52;14.88;;;11.30;99.90;;;;;;4991074;28;20231;-72
2021/11/20 14:36:20;;;;;;;21.05;15.85;;;11.30;99.90;;;;;;4988953;28;20212;-70
2021/11/20 14:38:51;;;;;;;20.50;15.65;;;11.30;99.90;;;;;;4986833;28;20201;-70
2021/11/20 14:41:19;;;;;;;20.30;15.32;;;11.30;99.90;;;;;;4971908;28;20247;-72
2021/11/20 14:43:46;;;;;;;25.23;16.98;;;11.30;99.90;;;;;;4971569;28;20657;-71
2021/11/20 14:46:14;;;;;;;18.75;15.13;;;11.20;99.90;;;;;;4971868;28;20208;-70
2021/11/20 14:48:40;;;;;;;21.25;15.23;;;11.30;99.90;;;;;;4971600;28;20220;-70
2021/11/20 14:51:07;;;;;;;19.85;15.02;;;11.20;99.90;;;;;;4971066;28;20228;-71
2021/11/20 14:53:38;;;;;;;21.08;16.48;;;11.20;99.90;;;;;;4971559;28;20204;-72
2021/11/20 14:56:11;;;;;;;18.08;14.57;;;11.20;99.90;;;;;;4971856;28;20307;-70
2021/11/20 14:58:38;;;;;;;20.92;15.80;;;11.20;99.90;;;;;;4971921;28;20506;-72
2021/11/20 15:01:06;;;;;;;20.92;15.52;;;11.20;99.90;;;;;;4971374;28;20232;-70
2021/11/20 15:03:35;;;;;;;21.13;15.13;;;11.10;99.90;;;;;;4971144;28;20200;-70
2021/11/20 15:06:03;;;;;;;22.38;15.52;;;11.10;99.90;;;;;;4974977;28;20203;-70
2021/11/20 15:08:29;;;;;;;19.42;14.80;;;11.10;99.90;;;;;;4979665;28;20203;-70
2021/11/20 15:10:58;;;;;;;24.35;16.75;;;11.10;99.90;;;;;;4975928;28;20228;-71
2021/11/20 15:13:25;;;;;;;26.27;16.33;;;11.10;99.90;;;;;;4983548;28;20203;-69
2021/11/20 15:15:52;;;;;;;20.77;15.35;;;11.10;99.90;;;;;;4991703;28;20206;-70
2021/11/20 15:18:19;;;;;;;23.05;15.93;;;11.10;99.90;;;;;;5010843;28;20570;-69
2021/11/20 15:20:47;;;;;;;20.00;15.07;;;11.10;99.90;;;;;;4985156;28;20239;-70
2021/11/20 15:23:14;;;;;;;20.52;14.23;;;11.10;99.90;;;;;;4989355;28;20208;-69
2021/11/20 15:25:41;;;;;;;20.65;15.70;;;11.10;99.90;;;;;;4989302;28;20649;-70
2021/11/20 15:28:09;;;;;;;25.05;16.65;;;11.10;99.90;;;;;;4992083;28;20219;-70
2021/11/20 15:30:36;;;;;;;23.55;15.45;;;11.00;99.90;;;;;;4990656;28;20243;-71
2021/11/20 15:33:03;;;;;;;19.27;14.88;;;11.00;99.90;;;;;;4984180;28;20207;-71
2021/11/20 15:35:30;;;;;;;20.55;14.75;;;11.00;99.90;;;;;;4990168;28;20218;-71
2021/11/20 15:37:58;;;;;;;23.55;15.57;;;11.00;99.90;;;;;;4976957;28;20755;-70
2021/11/20 15:40:25;;;;;;;23.45;16.90;;;11.00;99.90;;;;;;4976322;28;20592;-72
2021/11/20 15:42:52;;;;;;;25.98;16.30;;;11.00;99.90;;;;;;4982323;28;20259;-70
2021/11/20 15:45:20;;;;;;;27.90;16.70;;;11.00;99.90;;;;;;4989240;28;20235;-73
2021/11/20 15:47:47;;;;;;;23.95;16.05;;;10.90;99.90;;;;;;4985432;28;20208;-71
2021/11/20 15:50:16;;;;;;;23.05;15.52;;;10.90;99.90;;;;;;4979011;28;20232;-70
2021/11/20 15:52:43;;;;;;;26.13;18.05;;;10.90;99.90;;;;;;4988222;28;20259;-70
2021/11/20 15:55:10;;;;;;;25.90;17.20;;;10.90;99.90;;;;;;4979111;28;20213;-72
2021/11/20 15:57:38;;;;;;;24.50;16.50;;;10.90;99.90;;;;;;4989784;28;20208;-70
2021/11/20 16:00:06;;;;;;;25.30;17.60;;;10.80;99.90;;;;;;4985904;28;20413;-69
2021/11/20 16:02:34;;;;;;;25.92;17.75;;;10.80;99.90;;;;;;4977163;28;22056;-73
2021/11/20 16:05:01;;;;;;;31.27;19.15;;;10.80;99.90;;;;;;4987218;28;20211;-73
2021/11/20 16:07:28;;;;;;;27.08;17.70;;;10.80;99.90;;;;;;4989256;28;20218;-70
2021/11/20 16:09:55;;;;;;;27.67;18.35;;;10.80;99.90;;;;;;4988914;28;20223;-71
2021/11/20 16:12:21;;;;;;;30.73;16.70;;;10.80;99.90;;;;;;4983386;28;20292;-70
2021/11/20 16:14:48;;;;;;;25.90;17.55;;;10.80;99.90;;;;;;4984528;28;20208;-71
2021/11/20 16:17:15;;;;;;;22.77;16.42;;;10.80;99.90;;;;;;4991665;28;20219;-70
2021/11/20 16:19:43;;;;;;;25.48;15.43;;;10.80;99.90;;;;;;4976218;28;20236;-70
2021/11/20 16:22:11;;;;;;;26.50;16.63;;;10.70;99.90;;;;;;4983407;28;20553;-70
2021/11/20 16:24:40;;;;;;;24.75;17.10;;;10.70;99.90;;;;;;4994027;28;20200;-71
2021/11/20 16:27:06;;;;;;;29.67;17.67;;;10.70;99.90;;;;;;5002157;28;20617;-71
2021/11/20 16:29:33;;;;;;;27.05;16.45;;;10.70;99.90;;;;;;4974600;28;20347;-70
2021/11/20 16:32:01;;;;;;;25.00;17.10;;;10.70;99.90;;;;;;5004220;28;20226;-75
2021/11/20 16:34:30;;;;;;;30.25;18.08;;;10.60;99.90;;;;;;4974260;28;20216;-71
2021/11/20 16:36:58;;;;;;;26.60;17.35;;;10.70;99.90;;;;;;4974010;28;20624;-71
2021/11/20 16:39:25;;;;;;;30.13;18.17;;;10.60;99.90;;;;;;4982869;28;20236;-72
2021/11/20 16:41:52;;;;;;;27.23;16.38;;;10.60;99.90;;;;;;4984682;28;20212;-71
2021/11/20 16:44:20;;;;;;;30.55;17.70;;;10.60;99.90;;;;;;4992149;28;20207;-72
2021/11/20 16:46:50;;;;;;;32.78;19.02;;;10.60;99.90;;;;;;4984827;28;20204;-73
2021/11/20 16:49:20;;;;;;;33.20;18.25;;;10.50;99.90;;;;;;4990058;28;20630;-71
2021/11/20 16:54:35;;;;;;;32.00;17.95;;;10.50;99.90;;;;;;4988330;28;20200;-72
2021/11/20 16:57:03;;;;;;;30.48;17.52;;;10.40;99.90;;;;;;4978115;28;20669;-71
2021/11/20 16:59:29;;;;;;;30.00;17.67;;;10.40;99.90;;;;;;4973738;28;20228;-72
2021/11/20 17:01:56;;;;;;;28.00;17.75;;;10.40;99.90;;;;;;4973923;28;20205;-71
2021/11/20 17:04:24;;;;;;;32.70;17.77;;;10.40;99.90;;;;;;4974037;28;20234;-73
2021/11/20 17:06:51;;;;;;;28.05;16.63;;;10.40;99.90;;;;;;4973104;28;20204;-74
2021/11/20 17:09:18;;;;;;;27.98;17.27;;;10.40;99.90;;;;;;4974202;28;20596;-71
2021/11/20 17:11:46;;;;;;;33.42;19.20;;;10.40;99.90;;;;;;4979050;28;20231;-71
2021/11/20 17:14:13;;;;;;;30.33;17.95;;;10.40;99.90;;;;;;4986293;28;20212;-71
2021/11/20 17:16:40;;;;;;;30.08;17.85;;;10.40;99.90;;;;;;4977340;28;20231;-71
2021/11/20 17:19:07;;;;;;;32.25;17.27;;;10.30;99.90;;;;;;4989902;28;20878;-70
2021/11/20 17:21:34;;;;;;;31.20;19.08;;;10.30;99.90;;;;;;4984086;28;20196;-72
2021/11/20 17:24:01;;;;;;;36.13;18.83;;;10.30;99.90;;;;;;4980451;28;20205;-69
2021/11/20 17:26:27;;;;;;;36.80;20.60;;;10.30;99.90;;;;;;4992254;28;20685;-72
2021/11/20 17:28:55;;;;;;;39.70;18.75;;;10.20;99.90;;;;;;4986730;28;20211;-71
2021/11/20 17:31:25;;;;;;;38.10;20.70;;;10.30;99.90;;;;;;4989522;28;20592;-70
2021/11/20 17:33:51;;;;;;;37.53;20.20;;;10.30;99.90;;;;;;4981664;28;20579;-70
2021/11/20 17:36:18;;;;;;;37.10;19.73;;;10.20;99.90;;;;;;4989360;28;20203;-70
2021/11/20 17:38:45;;;;;;;40.08;20.25;;;10.20;99.90;;;;;;4980279;28;20219;-70
2021/11/20 17:41:13;;;;;;;37.33;20.10;;;10.20;99.90;;;;;;4991889;28;20246;-71
2021/11/20 17:43:41;;;;;;;39.63;21.65;;;10.20;99.90;;;;;;4989224;28;20599;-70
2021/11/20 17:46:09;;;;;;;41.78;20.67;;;10.20;99.90;;;;;;4988544;28;20283;-71
2021/11/20 17:48:36;;;;;;;38.28;20.52;;;10.20;99.90;;;;;;4983709;28;20208;-70
2021/11/20 17:51:03;;;;;;;37.63;19.58;;;10.20;99.90;;;;;;4972962;28;20689;-71
2021/11/20 17:53:30;;;;;;;41.13;21.67;;;10.20;99.90;;;;;;4974465;28;20232;-70